Time;durP1;ratioP1;P1;durP2;ratioP2;P2;SDS_P1;SDS_P2;PMS_P1;PMS_P2;Temp;Humidity;BMP_temperature;BMP_pressure;BME280_temperature;BME280_humidity;BME280_pressure;Samples;Min_cycle;Max_cycle;Signal;HPM_P1;HPM_P2
2022/04/29 00:01:25;;;;;;;10.85;6.70;;;;;;;19.44;34.72;102658.72;5014851;28;20517;-67
2022/04/29 00:03:53;;;;;;;15.85;7.10;;;;;;;19.46;34.93;102651.25;5014744;28;20030;-67
2022/04/29 00:06:21;;;;;;;11.52;5.70;;;;;;;19.48;34.41;102652.00;5014593;28;20026;-67
2022/04/29 00:08:47;;;;;;;13.05;6.72;;;;;;;19.48;34.72;102643.84;5014676;28;20372;-67
2022/04/29 00:11:12;;;;;;;14.57;5.63;;;;;;;19.50;35.00;102639.97;5030117;28;20084;-66
2022/04/29 00:13:37;;;;;;;11.95;7.18;;;;;;;19.51;34.53;102633.56;4997472;28;20026;-67
2022/04/29 00:16:05;;;;;;;15.05;6.57;;;;;;;19.51;34.51;102629.97;5014712;28;20022;-66
2022/04/29 00:18:31;;;;;;;13.55;6.10;;;;;;;19.49;34.52;102615.63;5014279;28;20037;-67
2022/04/29 00:20:56;;;;;;;14.65;7.28;;;;;;;19.49;35.09;102616.50;5014369;28;20033;-67
2022/04/29 00:23:21;;;;;;;12.52;6.93;;;;;;;19.46;34.89;102605.91;5013937;28;20025;-66
2022/04/29 00:25:47;;;;;;;13.68;6.68;;;;;;;19.46;35.45;102610.50;5014335;28;20458;-66
2022/04/29 00:28:12;;;;;;;13.30;6.63;;;;;;;19.45;35.24;102611.50;5029795;28;20084;-66
2022/04/29 00:30:37;;;;;;;12.77;6.03;;;;;;;19.43;34.79;102614.34;5014292;28;20021;-66
2022/04/29 00:33:03;;;;;;;16.75;6.90;;;;;;;19.42;35.22;102609.06;5014358;28;20033;-67
2022/04/29 00:35:28;;;;;;;15.60;6.50;;;;;;;19.40;34.84;102594.78;5014201;28;20396;-66
2022/04/29 00:37:55;;;;;;;14.82;6.45;;;;;;;19.40;35.14;102594.78;5014558;28;20098;-66
2022/04/29 00:40:29;;;;;;;13.43;5.75;;;;;;;19.36;35.30;102593.31;5014297;28;20022;-66
2022/04/29 00:42:54;;;;;;;16.55;6.90;;;;;;;19.34;35.37;102585.31;5014792;28;20470;-66
2022/04/29 00:45:21;;;;;;;10.30;5.70;;;;;;;19.33;35.04;102585.44;5014389;28;20034;-66
2022/04/29 00:47:48;;;;;;;8.07;5.00;;;;;;;19.29;34.65;102584.84;5014287;28;20036;-68
2022/04/29 00:50:15;;;;;;;11.88;5.03;;;;;;;19.26;35.39;102587.88;5014294;28;20410;-66
2022/04/29 00:52:43;;;;;;;11.88;5.00;;;;;;;19.24;35.81;102584.44;5014268;28;20076;-66
2022/04/29 00:55:11;;;;;;;10.43;5.40;;;;;;;19.24;36.05;102583.56;4996788;28;20460;-66
2022/04/29 00:58:09;;;;;;;14.18;5.32;;;;;;;19.21;34.95;102584.72;5014672;28;20030;-66
2022/04/29 01:00:36;;;;;;;9.25;5.18;;;;;;;19.18;35.74;102583.13;4995850;28;20069;-67
2022/04/29 01:03:03;;;;;;;8.45;4.97;;;;;;;19.15;35.50;102585.31;5018060;28;20026;-65
2022/04/29 01:05:29;;;;;;;12.85;5.55;;;;;;;19.15;35.90;102586.13;5018482;28;20025;-67
2022/04/29 01:07:54;;;;;;;6.43;4.47;;;;;;;19.13;35.61;102587.28;5017643;28;20052;-67
2022/04/29 01:10:22;;;;;;;11.23;5.97;;;;;;;19.12;35.57;102586.41;5017528;28;20037;-66
2022/04/29 01:12:50;;;;;;;11.93;5.65;;;;;;;19.11;35.37;102584.72;5017781;28;20494;-67
2022/04/29 01:15:20;;;;;;;11.15;5.15;;;;;;;19.09;36.33;102586.72;5033096;28;20065;-67
2022/04/29 01:17:50;;;;;;;14.73;5.03;;;;;;;19.08;35.66;102590.44;5017819;28;20031;-66
2022/04/29 01:20:17;;;;;;;11.38;4.93;;;;;;;19.08;35.48;102585.00;5018454;28;20022;-66
2022/04/29 01:22:43;;;;;;;16.70;5.60;;;;;;;19.07;35.36;102590.56;5018009;28;20368;-67
2022/04/29 01:25:11;;;;;;;15.15;4.75;;;;;;;19.05;35.25;102588.00;5018125;28;20109;-68
2022/04/29 01:27:37;;;;;;;15.52;5.82;;;;;;;19.04;36.46;102583.56;5017898;28;20033;-66
2022/04/29 01:30:11;;;;;;;10.82;4.97;;;;;;;19.03;36.05;102584.56;5017507;28;20033;-67
2022/04/29 01:32:39;;;;;;;10.60;4.75;;;;;;;19.01;36.44;102572.97;5017307;28;20026;-67
2022/04/29 01:35:07;;;;;;;12.57;5.50;;;;;;;18.99;36.43;102577.69;5017301;28;20545;-66
2022/04/29 01:37:33;;;;;;;11.70;5.40;;;;;;;18.95;35.91;102570.84;5017322;28;20475;-66
2022/04/29 01:39:58;;;;;;;10.63;4.55;;;;;;;18.94;36.08;102568.25;5017625;28;20022;-66
2022/04/29 01:42:24;;;;;;;14.18;4.80;;;;;;;18.91;35.95;102565.81;4999580;28;20052;-66
2022/04/29 01:44:49;;;;;;;12.05;4.93;;;;;;;18.89;36.30;102568.69;5017592;28;20506;-66
2022/04/29 01:47:15;;;;;;;9.82;4.93;;;;;;;18.88;36.19;102572.38;5016906;28;20026;-67
2022/04/29 01:49:41;;;;;;;10.77;5.40;;;;;;;18.89;36.25;102567.81;5017577;28;20025;-66
2022/04/29 01:52:08;;;;;;;11.88;5.75;;;;;;;18.85;36.19;102561.81;5017010;28;20113;-67
2022/04/29 01:54:34;;;;;;;14.52;5.13;;;;;;;18.84;36.13;102570.97;5016474;28;20037;-67
2022/04/29 01:57:00;;;;;;;11.68;5.45;;;;;;;18.83;36.38;102574.66;5017205;28;20030;-67
2022/04/29 01:59:26;;;;;;;9.77;5.80;;;;;;;18.82;36.74;102570.22;5017532;28;20475;-67
2022/04/29 02:01:51;;;;;;;17.40;5.78;;;;;;;18.80;36.13;102569.53;4999757;28;20054;-67
2022/04/29 02:04:16;;;;;;;11.15;5.60;;;;;;;18.81;36.34;102568.53;5017402;28;20045;-67
2022/04/29 02:06:42;;;;;;;9.77;5.53;;;;;;;18.80;36.86;102574.94;4999397;28;20105;-67
2022/04/29 02:09:08;;;;;;;10.80;5.65;;;;;;;18.82;36.27;102572.94;5016833;28;20034;-66
2022/04/29 02:11:34;;;;;;;14.30;5.95;;;;;;;18.80;37.43;102569.53;5016579;28;20053;-67
2022/04/29 02:14:00;;;;;;;11.13;5.75;;;;;;;18.80;37.00;102580.38;5017242;28;20030;-66
2022/04/29 02:16:25;;;;;;;17.83;6.50;;;;;;;18.78;36.13;102579.66;5016851;28;20030;-66
2022/04/29 02:18:51;;;;;;;10.18;5.72;;;;;;;18.77;37.29;102574.38;5016688;28;20480;-67
2022/04/29 02:21:16;;;;;;;9.50;5.32;;;;;;;18.76;36.73;102573.50;5016660;28;20076;-66
2022/04/29 02:23:42;;;;;;;9.93;5.80;;;;;;;18.75;36.72;102576.38;5017104;28;20110;-66
2022/04/29 02:26:07;;;;;;;15.35;5.72;;;;;;;18.74;37.18;102564.63;5016738;28;20495;-66
2022/04/29 02:28:34;;;;;;;11.77;4.93;;;;;;;18.72;37.11;102561.22;5016038;28;20034;-66
2022/04/29 02:31:00;;;;;;;8.38;4.00;;;;;;;18.70;36.96;102565.94;5016361;28;20025;-66
2022/04/29 02:33:27;;;;;;;10.30;5.15;;;;;;;18.69;36.88;102566.91;4999364;28;20382;-66
2022/04/29 02:35:53;;;;;;;7.45;4.40;;;;;;;18.68;37.54;102558.94;5016319;28;20049;-67
2022/04/29 02:38:18;;;;;;;12.00;4.43;;;;;;;18.65;37.43;102564.63;5016372;28;20025;-66
2022/04/29 02:40:44;;;;;;;11.55;4.50;;;;;;;18.63;36.67;102556.63;5016366;28;20047;-66
2022/04/29 02:43:09;;;;;;;6.65;4.45;;;;;;;18.60;38.15;102563.19;5016630;28;20080;-66
2022/04/29 02:45:34;;;;;;;9.13;4.13;;;;;;;18.59;38.33;102560.63;5016157;28;20029;-67
2022/04/29 02:48:00;;;;;;;13.85;4.50;;;;;;;18.58;38.34;102556.19;5015879;28;20534;-66
2022/04/29 02:50:25;;;;;;;7.20;4.25;;;;;;;18.57;37.46;102554.44;5016029;28;20501;-67
2022/04/29 02:52:51;;;;;;;9.32;4.25;;;;;;;18.54;37.23;102547.44;5016430;28;20030;-67
2022/04/29 02:55:17;;;;;;;5.82;3.67;;;;;;;18.52;38.32;102548.59;5015613;28;20018;-66
2022/04/29 02:57:42;;;;;;;12.57;4.07;;;;;;;18.48;37.72;102549.88;5015847;28;20033;-67
2022/04/29 03:00:08;;;;;;;17.35;4.25;;;;;;;18.47;37.71;102550.81;5031305;28;20064;-67
2022/04/29 03:02:33;;;;;;;8.07;4.65;;;;;;;18.44;37.21;102546.53;5015825;28;20022;-66
2022/04/29 03:04:59;;;;;;;8.65;4.93;;;;;;;18.42;37.92;102545.81;4997791;28;20033;-67
2022/04/29 03:07:24;;;;;;;8.90;4.63;;;;;;;18.42;38.13;102542.25;5030892;28;20033;-67
2022/04/29 03:09:49;;;;;;;9.65;4.20;;;;;;;18.39;37.57;102553.38;5015955;28;20413;-67
2022/04/29 03:12:15;;;;;;;8.57;4.28;;;;;;;18.38;36.77;102546.22;5015647;28;20030;-66
2022/04/29 03:14:41;;;;;;;12.52;5.63;;;;;;;18.35;37.50;102541.06;5015478;28;20104;-66
2022/04/29 03:18:17;;;;;;;6.97;4.65;;;;;;;18.34;37.52;102542.91;5015650;28;20096;-66
2022/04/29 03:19:52;;;;;;;9.52;3.65;;;;;;;18.32;37.93;102541.34;5015200;28;20049;-65
2022/04/29 03:22:17;;;;;;;10.55;4.10;;;;;;;18.30;37.60;102532.50;5030303;28;20464;-67
2022/04/29 03:24:42;;;;;;;13.90;4.80;;;;;;;18.30;37.31;102537.91;5015309;28;20101;-66
2022/04/29 03:27:08;;;;;;;8.18;4.63;;;;;;;18.29;38.18;102533.47;5015995;28;20036;-66
2022/04/29 03:29:33;;;;;;;10.38;4.50;;;;;;;18.27;37.35;102532.75;5015258;28;20041;-67
2022/04/29 03:31:58;;;;;;;8.55;4.55;;;;;;;18.25;37.29;102532.03;5014931;28;20026;-66
2022/04/29 03:34:25;;;;;;;9.25;4.75;;;;;;;18.23;38.28;102532.16;5014891;28;20073;-67
2022/04/29 03:36:50;;;;;;;7.13;4.70;;;;;;;18.21;38.29;102527.88;5015028;28;20156;-66
2022/04/29 03:39:15;;;;;;;14.77;4.93;;;;;;;18.18;37.24;102528.16;5015316;28;20049;-66
2022/04/29 03:41:41;;;;;;;13.45;5.63;;;;;;;18.19;38.16;102533.44;5014791;28;20069;-66
2022/04/29 03:44:06;;;;;;;11.52;5.43;;;;;;;18.18;38.85;102530.88;5014633;28;20029;-66
2022/04/29 03:46:32;;;;;;;11.48;4.80;;;;;;;18.17;38.97;102534.59;5014921;28;20053;-66
2022/04/29 03:51:41;;;;;;;12.50;5.28;;;;;;;18.12;38.07;102534.97;5014506;28;20091;-66
2022/04/29 03:54:06;;;;;;;10.35;4.90;;;;;;;18.12;38.70;102539.56;5014704;28;20030;-67
2022/04/29 03:56:31;;;;;;;8.77;5.00;;;;;;;18.11;37.66;102532.41;5014558;28;20021;-67
2022/04/29 03:58:57;;;;;;;8.35;5.05;;;;;;;18.10;37.89;102544.25;5014709;28;20031;-66
2022/04/29 04:01:22;;;;;;;11.45;5.25;;;;;;;18.09;38.83;102546.09;4997132;28;20036;-66
2022/04/29 04:03:47;;;;;;;14.50;5.55;;;;;;;18.09;37.48;102545.25;5014550;28;20069;-68
2022/04/29 04:08:57;;;;;;;11.32;4.25;;;;;;;18.03;38.92;102536.66;5013443;28;20037;-67
2022/04/29 04:11:22;;;;;;;12.40;4.93;;;;;;;18.00;38.19;102542.38;5030008;28;20022;-66
2022/04/29 04:13:48;;;;;;;11.30;5.00;;;;;;;17.98;38.35;102533.50;5015346;28;20032;-66
2022/04/29 04:16:13;;;;;;;13.95;5.07;;;;;;;18.01;38.20;102538.66;4996792;28;20040;-67
2022/04/29 04:18:38;;;;;;;11.13;5.22;;;;;;;18.02;38.51;102537.66;5014470;28;20029;-67
2022/04/29 04:21:04;;;;;;;17.48;5.28;;;;;;;18.01;37.86;102538.66;5014466;28;20030;-66
2022/04/29 04:23:29;;;;;;;11.60;4.80;;;;;;;17.99;38.54;102529.81;5029565;28;20030;-66
2022/04/29 04:25:56;;;;;;;9.68;5.13;;;;;;;17.99;38.12;102537.94;5014757;28;20053;-67
2022/04/29 04:28:22;;;;;;;13.02;5.47;;;;;;;17.98;38.36;102544.34;4996855;28;20104;-67
2022/04/29 04:30:47;;;;;;;14.32;5.75;;;;;;;17.97;39.07;102537.22;5013603;28;20546;-67
2022/04/29 04:33:13;;;;;;;15.30;6.45;;;;;;;17.98;38.26;102538.91;5014046;28;20036;-65
2022/04/29 04:35:38;;;;;;;14.38;5.50;;;;;;;17.98;38.99;102538.91;5014106;28;20057;-66
2022/04/29 04:38:03;;;;;;;17.50;6.45;;;;;;;17.98;39.03;102544.34;5014121;28;20430;-66
2022/04/29 04:40:29;;;;;;;10.43;6.07;;;;;;;17.96;39.14;102546.34;5014160;28;20480;-66
2022/04/29 04:42:54;;;;;;;8.85;5.43;;;;;;;17.96;39.06;102540.06;5014325;28;20479;-67
2022/04/29 04:45:20;;;;;;;7.68;5.25;;;;;;;17.96;38.54;102540.91;5014059;28;20022;-66
2022/04/29 04:47:45;;;;;;;11.98;5.93;;;;;;;17.95;39.06;102535.63;4996449;28;20022;-67
2022/04/29 04:50:11;;;;;;;17.52;6.05;;;;;;;17.94;38.15;102537.50;5013902;28;20054;-67
2022/04/29 04:52:38;;;;;;;14.20;5.78;;;;;;;17.96;39.05;102540.91;5014169;28;20045;-67
2022/04/29 04:55:05;;;;;;;8.75;5.47;;;;;;;17.96;38.61;102538.19;4996456;28;20018;-67
2022/04/29 04:57:30;;;;;;;12.60;5.85;;;;;;;17.95;37.80;102532.94;5013862;28;20030;-66
2022/04/29 04:59:56;;;;;;;10.30;5.60;;;;;;;17.95;37.95;102541.91;5013555;28;20557;-66
2022/04/29 05:02:21;;;;;;;10.82;5.85;;;;;;;17.94;39.37;102542.91;5028904;28;20538;-66
2022/04/29 05:04:46;;;;;;;13.38;6.07;;;;;;;17.95;38.41;102546.50;5013438;28;20084;-68
2022/04/29 05:07:12;;;;;;;16.15;5.55;;;;;;;17.95;38.87;102541.06;5013679;28;20034;-67
2022/04/29 05:09:37;;;;;;;12.98;6.32;;;;;;;17.97;39.10;102542.66;5013723;28;20029;-67
2022/04/29 05:12:03;;;;;;;12.27;5.32;;;;;;;17.97;38.23;102536.34;5013771;28;20037;-66
2022/04/29 05:14:28;;;;;;;15.18;6.50;;;;;;;17.98;38.27;102543.47;5013584;28;20030;-67
2022/04/29 05:16:53;;;;;;;14.85;6.38;;;;;;;17.97;38.27;102547.19;5013676;28;20053;-67
2022/04/29 05:19:19;;;;;;;14.23;6.22;;;;;;;17.95;38.29;102552.75;5013674;28;20562;-66
2022/04/29 05:21:46;;;;;;;16.25;5.85;;;;;;;17.95;39.61;102544.59;5013734;28;20482;-67
2022/04/29 05:24:11;;;;;;;9.23;5.47;;;;;;;17.98;38.30;102552.47;5013873;28;20383;-66
2022/04/29 05:26:36;;;;;;;10.75;6.28;;;;;;;17.99;39.46;102559.63;5013874;28;20022;-66
2022/04/29 05:29:02;;;;;;;12.85;5.55;;;;;;;18.00;38.98;102558.66;5013701;28;20044;-66
2022/04/29 05:31:27;;;;;;;14.85;6.50;;;;;;;18.00;38.99;102546.94;5013787;28;20112;-67
2022/04/29 05:33:53;;;;;;;15.15;5.20;;;;;;;18.03;39.57;102547.50;5028186;28;20041;-66
2022/04/29 05:36:18;;;;;;;11.15;5.63;;;;;;;18.05;39.06;102547.38;5013223;28;20036;-66
2022/04/29 05:44:11;;;;;;;14.93;5.45;;;;;;;18.12;37.72;102551.25;5027001;28;20558;-66
2022/04/29 05:46:36;;;;;;;21.20;6.53;;;;;;;18.15;38.77;102558.25;5032270;28;20022;-65
2022/04/29 05:49:03;;;;;;;14.02;6.63;;;;;;;18.18;39.42;102555.28;4999144;28;20390;-66
2022/04/29 05:51:28;;;;;;;13.10;6.03;;;;;;;18.21;38.46;102555.00;5017153;28;20101;-68
2022/04/29 05:53:53;;;;;;;12.52;5.35;;;;;;;18.23;38.10;102550.31;5017126;28;20038;-66
2022/04/29 05:56:19;;;;;;;14.80;6.00;;;;;;;18.27;38.92;102562.59;5019076;28;20056;-66
2022/04/29 05:58:45;;;;;;;11.32;6.15;;;;;;;18.30;38.09;102554.19;5016515;28;20391;-67
2022/04/29 06:01:11;;;;;;;11.80;5.65;;;;;;;18.33;38.25;102553.91;5001155;28;20029;-66
2022/04/29 06:03:37;;;;;;;14.38;6.00;;;;;;;18.36;38.63;102542.78;5015734;28;20032;-66
2022/04/29 06:06:03;;;;;;;13.80;6.00;;;;;;;18.37;39.11;102548.06;5017061;28;20026;-67
2022/04/29 06:08:28;;;;;;;12.77;6.88;;;;;;;18.42;38.95;102544.97;5016749;28;20476;-67
2022/04/29 06:10:53;;;;;;;10.70;5.72;;;;;;;18.45;39.10;102563.69;5016903;28;20022;-67
2022/04/29 06:13:19;;;;;;;12.38;5.55;;;;;;;18.49;38.83;102565.16;5017108;28;20036;-66
2022/04/29 06:15:45;;;;;;;11.77;5.43;;;;;;;18.49;38.70;102559.72;5016671;28;20022;-65
2022/04/29 06:18:10;;;;;;;10.50;5.50;;;;;;;18.52;38.66;102560.31;5016579;28;20034;-66
2022/04/29 06:20:36;;;;;;;10.70;5.25;;;;;;;18.55;38.43;102564.59;5016428;28;20383;-67
2022/04/29 06:23:01;;;;;;;15.63;5.68;;;;;;;18.58;38.00;102553.47;5016309;28;20467;-67
2022/04/29 06:25:26;;;;;;;13.23;6.03;;;;;;;18.59;39.35;102550.59;5016010;28;20026;-66
2022/04/29 06:27:52;;;;;;;13.10;5.20;;;;;;;18.63;38.75;102555.75;5017203;28;20080;-67
2022/04/29 06:30:17;;;;;;;14.75;5.75;;;;;;;18.64;38.44;102550.19;5016708;28;20057;-67
2022/04/29 06:32:43;;;;;;;7.68;5.20;;;;;;;18.69;38.54;102566.91;5016686;28;20451;-67
2022/04/29 06:35:08;;;;;;;14.27;6.40;;;;;;;18.70;38.91;102567.78;5016308;28;20137;-67
2022/04/29 06:37:35;;;;;;;14.00;5.63;;;;;;;18.72;37.96;102561.22;5016378;28;20467;-67
2022/04/29 06:40:00;;;;;;;11.15;5.20;;;;;;;18.75;37.40;102565.50;5016569;28;20038;-66
2022/04/29 06:42:29;;;;;;;19.85;6.38;;;;;;;18.78;38.76;102576.09;5032176;28;20032;-67
2022/04/29 06:44:54;;;;;;;15.10;5.45;;;;;;;18.80;38.10;102569.53;5016379;28;20025;-67
2022/04/29 06:47:19;;;;;;;20.20;5.85;;;;;;;18.83;37.77;102569.25;5016325;28;20030;-66
2022/04/29 06:49:45;;;;;;;22.50;6.05;;;;;;;18.87;37.49;102581.53;5018075;28;20025;-66
2022/04/29 06:52:11;;;;;;;10.18;5.55;;;;;;;18.90;37.76;102581.25;5016124;28;20057;-67
2022/04/29 06:54:37;;;;;;;9.70;5.53;;;;;;;18.94;37.94;102581.81;5016335;28;20034;-67
2022/04/29 06:57:02;;;;;;;14.75;5.53;;;;;;;18.99;38.41;102577.69;4998065;28;20102;-66
2022/04/29 06:59:28;;;;;;;11.45;6.22;;;;;;;19.04;38.03;102571.81;5016231;28;20030;-67
2022/04/29 07:01:53;;;;;;;12.55;6.00;;;;;;;19.09;38.18;102578.59;5016079;28;20423;-66
2022/04/29 07:04:19;;;;;;;12.35;5.97;;;;;;;19.15;37.85;102577.97;5017078;28;20518;-67
2022/04/29 07:06:44;;;;;;;10.43;5.25;;;;;;;19.17;38.46;102573.28;4998523;28;20395;-67
2022/04/29 07:09:09;;;;;;;9.38;5.45;;;;;;;19.21;37.99;102578.44;5016293;28;20399;-67
2022/04/29 07:11:35;;;;;;;12.07;5.22;;;;;;;19.24;37.70;102578.13;5015766;28;20387;-67
2022/04/29 07:14:01;;;;;;;10.80;5.75;;;;;;;19.27;37.47;102580.56;5015902;28;20037;-67
2022/04/29 07:16:26;;;;;;;13.45;5.18;;;;;;;19.29;38.33;102582.13;5016367;28;20025;-66
2022/04/29 07:18:51;;;;;;;12.13;5.35;;;;;;;19.33;37.71;102578.16;5015995;28;20057;-67
2022/04/29 07:21:17;;;;;;;12.65;5.40;;;;;;;19.35;37.71;102581.56;5015962;28;20105;-67
2022/04/29 07:23:42;;;;;;;12.57;5.78;;;;;;;19.41;37.92;102574.72;5015840;28;20084;-66
2022/04/29 07:26:08;;;;;;;9.98;5.28;;;;;;;19.46;38.08;102573.28;5015984;28;20448;-67
2022/04/29 07:28:33;;;;;;;12.60;6.03;;;;;;;19.52;37.41;102580.03;5015236;28;20395;-66
2022/04/29 07:31:00;;;;;;;14.55;5.50;;;;;;;19.56;37.83;102567.88;5015209;28;20044;-66
2022/04/29 07:33:25;;;;;;;12.20;6.55;;;;;;;19.63;37.82;102571.69;5014883;28;20017;-67
2022/04/29 07:44:02;;;;;;;10.57;5.82;;;;;;;19.89;37.61;102559.22;5014976;28;20541;-67
2022/04/29 07:46:28;;;;;;;8.55;5.53;;;;;;;19.98;37.58;102552.88;5015045;28;20029;-66
2022/04/29 07:48:53;;;;;;;19.80;6.28;;;;;;;20.16;37.34;102556.53;5014595;28;20022;-66
2022/04/29 07:51:19;;;;;;;13.40;5.88;;;;;;;20.30;36.99;102563.38;5014853;28;20113;-67
2022/04/29 07:53:44;;;;;;;14.20;6.38;;;;;;;20.47;36.83;102570.75;5015005;28;20463;-66
2022/04/29 07:56:09;;;;;;;9.88;5.72;;;;;;;20.68;36.72;102563.19;5014793;28;20483;-67
2022/04/29 07:58:35;;;;;;;12.88;5.72;;;;;;;20.88;36.66;102558.47;5015018;28;20502;-66
2022/04/29 08:01:01;;;;;;;15.52;7.38;;;;;;;21.06;36.37;102556.63;5014860;28;20022;-66
2022/04/29 08:03:27;;;;;;;15.32;5.65;;;;;;;21.18;36.10;102552.69;4997104;28;20387;-67
2022/04/29 08:05:53;;;;;;;9.80;5.65;;;;;;;21.39;36.66;102558.66;5014597;28;20026;-66
2022/04/29 08:08:19;;;;;;;13.02;6.07;;;;;;;21.54;36.16;102563.56;5030175;28;20101;-66
2022/04/29 08:10:45;;;;;;;15.32;5.20;;;;;;;21.70;36.40;102566.41;5014757;28;20109;-66
2022/04/29 08:13:11;;;;;;;15.30;6.35;;;;;;;21.87;35.62;102577.31;5029912;28;20030;-66
2022/04/29 08:15:36;;;;;;;17.25;6.72;;;;;;;22.07;36.00;102574.38;5014735;28;20029;-66
2022/04/29 08:18:03;;;;;;;12.70;5.82;;;;;;;22.19;35.90;102575.81;5014361;28;20376;-66
2022/04/29 08:20:28;;;;;;;9.95;6.45;;;;;;;22.26;35.26;102577.72;4996837;28;20068;-66
2022/04/29 08:22:54;;;;;;;12.65;5.85;;;;;;;22.26;35.95;102575.00;5014308;28;20430;-66
2022/04/29 08:25:20;;;;;;;14.45;5.65;;;;;;;22.30;35.59;102578.25;5013932;28;20116;-67
2022/04/29 08:27:46;;;;;;;13.55;6.00;;;;;;;22.38;35.87;102573.69;5014507;28;20061;-67
2022/04/29 08:30:13;;;;;;;8.93;5.68;;;;;;;22.43;35.04;102575.91;5014313;28;20032;-67
2022/04/29 08:32:45;;;;;;;11.93;5.82;;;;;;;22.48;34.71;102566.22;5014404;28;20491;-67
2022/04/29 08:35:11;;;;;;;;;;;;;;;22.55;34.92;102580.94;5014387;28;20042;-66
2022/04/29 08:37:37;;;;;;;12.50;5.57;;;;;;;22.65;34.88;102580.81;5014277;28;19909;-67
2022/04/29 08:40:04;;;;;;;11.45;5.90;;;;;;;22.74;35.17;102581.72;5014262;28;20026;-67
2022/04/29 08:42:30;;;;;;;12.02;5.47;;;;;;;22.84;35.08;102583.28;5013837;28;20021;-66
2022/04/29 08:44:57;;;;;;;15.32;6.88;;;;;;;22.90;35.29;102588.06;5029573;28;20025;-66
2022/04/29 08:47:23;;;;;;;10.02;5.57;;;;;;;22.90;34.68;102584.47;5014209;28;20025;-66
2022/04/29 08:49:49;;;;;;;12.45;5.38;;;;;;;22.90;35.12;102581.75;4996987;28;20034;-67
2022/04/29 08:52:15;;;;;;;11.32;5.32;;;;;;;22.92;34.56;102585.19;4997255;28;20025;-66
2022/04/29 09:00:22;;;;;;;10.70;5.63;;;;;;;23.32;34.26;102585.25;5014167;28;20069;-66
2022/04/29 09:02:47;;;;;;;9.75;4.90;;;;;;;23.36;34.99;102578.44;5014312;28;20025;-66
2022/04/29 09:05:12;;;;;;;14.23;5.95;;;;;;;23.32;34.11;102577.03;5013915;28;20110;-66
2022/04/29 09:07:59;;;;;;;18.38;6.03;;;;;;;23.39;34.12;102567.19;5013810;28;20102;-67
2022/04/29 09:10:26;;;;;;;15.40;6.43;;;;;;;23.52;34.69;102570.25;5013622;28;20028;-66
2022/04/29 09:12:52;;;;;;;11.90;6.25;;;;;;;23.67;34.13;102570.41;5013786;28;20471;-66
2022/04/29 09:15:17;;;;;;;16.67;6.97;;;;;;;23.81;34.21;102579.81;5013804;28;20022;-66
2022/04/29 09:17:48;;;;;;;20.77;7.38;;;;;;;23.88;33.39;102575.34;5013924;28;20083;-66
2022/04/29 09:20:18;;;;;;;20.65;6.78;;;;;;;23.91;34.05;102577.72;5015776;28;20045;-66
2022/04/29 09:22:54;;;;;;;13.30;6.57;;;;;;;23.87;34.18;102573.66;5017787;28;20540;-67
2022/04/29 09:25:19;;;;;;;10.02;6.22;;;;;;;23.93;34.19;102578.41;5017372;28;20097;-67
2022/04/29 09:27:59;;;;;;;16.95;7.35;;;;;;;24.09;33.62;102567.44;5017717;28;20033;-67
2022/04/29 09:30:56;;;;;;;14.05;6.32;;;;;;;24.37;32.87;102576.97;5017283;28;20021;-66
2022/04/29 09:33:23;;;;;;;11.20;6.03;;;;;;;24.55;33.34;102574.84;5016389;28;20499;-66
2022/04/29 09:35:49;;;;;;;14.93;7.32;;;;;;;24.67;33.41;102573.41;5032839;28;20089;-67
2022/04/29 09:40:59;;;;;;;11.82;6.25;;;;;;;24.85;32.65;102571.28;5017584;28;20069;-66
2022/04/29 09:43:42;;;;;;;13.13;5.30;;;;;;;25.16;32.21;102556.69;5016678;28;20045;-66
2022/04/29 09:46:13;;;;;;;11.38;6.43;;;;;;;25.18;32.83;102560.13;5016905;28;20072;-66
2022/04/29 09:49:06;;;;;;;15.70;6.38;;;;;;;25.25;32.63;102561.06;5016989;28;20503;-66
2022/04/29 09:51:53;;;;;;;13.32;6.15;;;;;;;25.49;32.04;102552.66;5018236;28;20455;-67
2022/04/29 09:54:22;;;;;;;11.55;6.35;;;;;;;25.59;31.99;102547.78;5017650;28;20029;-66
2022/04/29 09:57:11;;;;;;;13.50;6.85;;;;;;;25.97;31.55;102554.09;5017161;28;20026;-66
2022/04/29 09:59:50;;;;;;;12.32;6.10;;;;;;;26.35;31.34;102550.25;5016624;28;20028;-66
2022/04/29 10:02:21;;;;;;;14.57;6.25;;;;;;;26.62;31.03;102551.44;5017446;28;20467;-66
2022/04/29 10:04:47;;;;;;;20.08;6.70;;;;;;;26.58;31.00;102541.84;5016838;28;20021;-66
2022/04/29 10:07:17;;;;;;;13.32;6.80;;;;;;;26.47;31.00;102542.34;5016601;28;20052;-66
2022/04/29 10:09:48;;;;;;;10.95;6.15;;;;;;;26.36;31.29;102545.59;5016682;28;20026;-67
2022/04/29 10:12:16;;;;;;;13.43;6.80;;;;;;;26.27;31.18;102546.75;5016367;28;20475;-66
2022/04/29 10:14:44;;;;;;;15.13;7.07;;;;;;;26.24;31.08;102549.88;5016581;28;20109;-66
2022/04/29 10:22:42;;;;;;;16.13;6.88;;;;;;;26.06;31.22;102539.22;5029748;28;20057;-66
2022/04/29 10:25:09;;;;;;;12.88;7.03;;;;;;;25.98;31.31;102542.06;5016068;28;20065;-66
2022/04/29 10:27:39;;;;;;;22.65;6.43;;;;;;;25.87;31.41;102540.66;5016686;28;20411;-66
2022/04/29 10:30:06;;;;;;;12.30;6.43;;;;;;;25.75;32.02;102535.78;5016277;28;20101;-66
2022/04/29 10:33:00;;;;;;;14.50;6.57;;;;;;;25.60;31.97;102537.66;5015977;28;20436;-66
2022/04/29 10:35:45;;;;;;;16.60;7.38;;;;;;;25.42;31.74;102549.78;5015935;28;20054;-65
2022/04/29 10:38:34;;;;;;;12.40;6.63;;;;;;;25.28;32.17;102555.22;5016529;28;20473;-66
2022/04/29 10:41:12;;;;;;;15.73;6.05;;;;;;;25.18;32.15;102554.63;5016034;28;20026;-66
2022/04/29 10:43:50;;;;;;;16.65;6.65;;;;;;;25.08;31.88;102548.50;5016191;28;20037;-66
2022/04/29 10:46:22;;;;;;;21.70;6.75;;;;;;;25.02;32.07;102549.22;5016405;28;20029;-67
2022/04/29 10:48:52;;;;;;;11.65;5.97;;;;;;;24.93;31.91;102550.34;5015892;28;20156;-66
2022/04/29 10:51:19;;;;;;;14.35;6.88;;;;;;;24.84;32.09;102546.78;5015533;28;20033;-66
2022/04/29 10:53:46;;;;;;;11.77;5.65;;;;;;;24.75;31.90;102543.22;5015581;28;20030;-66
2022/04/29 10:56:30;;;;;;;12.88;6.50;;;;;;;24.65;31.66;102537.09;5016157;28;20155;-66
2022/04/29 10:59:09;;;;;;;11.75;5.57;;;;;;;24.57;32.38;102537.13;5015500;28;20387;-66
2022/04/29 11:01:35;;;;;;;12.55;5.97;;;;;;;24.50;31.95;102541.63;5015226;28;20032;-66
2022/04/29 11:04:02;;;;;;;14.52;7.28;;;;;;;24.43;32.61;102537.06;5015730;28;20041;-66
2022/04/29 11:06:47;;;;;;;14.48;6.70;;;;;;;24.33;31.79;102526.28;4998162;28;20423;-66
2022/04/29 11:09:35;;;;;;;15.88;6.85;;;;;;;24.27;32.82;102529.75;5016181;28;20543;-66
2022/04/29 11:12:02;;;;;;;20.10;7.10;;;;;;;24.18;32.17;102522.56;5015039;28;20042;-65
2022/04/29 11:14:27;;;;;;;12.20;6.57;;;;;;;24.10;32.12;102520.72;5015303;28;20120;-66
2022/04/29 11:16:57;;;;;;;8.60;5.38;;;;;;;24.05;33.09;102525.00;5030966;28;20159;-66
2022/04/29 11:19:28;;;;;;;13.85;6.97;;;;;;;23.96;32.86;102518.69;4997866;28;20543;-65
2022/04/29 11:25:01;;;;;;;20.55;6.70;;;;;;;23.75;32.20;102512.94;5015110;28;20048;-67
2022/04/29 11:27:28;;;;;;;15.70;6.72;;;;;;;23.67;32.48;102502.00;5015026;28;20030;-66
2022/04/29 11:29:56;;;;;;;14.90;6.88;;;;;;;23.61;32.49;102508.16;5015239;28;20395;-66
2022/04/29 11:32:25;;;;;;;13.20;6.20;;;;;;;23.57;33.31;102504.91;5015155;28;20104;-66
2022/04/29 11:34:52;;;;;;;12.60;6.68;;;;;;;23.55;33.32;102496.03;5014825;28;20050;-66
2022/04/29 11:37:24;;;;;;;14.32;6.80;;;;;;;23.54;32.96;102501.66;5015380;28;20026;-66
2022/04/29 11:39:56;;;;;;;15.57;6.95;;;;;;;23.53;32.76;102500.84;5015279;28;20453;-66
2022/04/29 11:42:22;;;;;;;17.65;7.20;;;;;;;23.52;32.54;102498.25;5014336;28;20030;-66
2022/04/29 11:44:49;;;;;;;18.10;7.20;;;;;;;23.48;32.85;102497.75;4997567;28;20029;-66
2022/04/29 11:47:25;;;;;;;16.58;6.45;;;;;;;23.49;33.68;102494.00;5015465;28;20033;-66
2022/04/29 11:49:51;;;;;;;10.70;5.97;;;;;;;23.49;32.40;102499.47;5015441;28;20033;-66
2022/04/29 11:52:27;;;;;;;20.42;6.78;;;;;;;23.54;33.25;102502.53;5014628;28;20482;-66
2022/04/29 11:55:01;;;;;;;16.02;6.10;;;;;;;23.58;33.04;102492.94;5014677;28;20022;-65
2022/04/29 11:57:31;;;;;;;12.38;5.88;;;;;;;23.62;33.04;102488.81;5014968;28;20464;-66